createdAt,value
2022-12-14T00:01:34.358Z,76.49
2022-12-14T00:04:00.945Z,76.68
2022-12-14T00:06:29.905Z,77.02
2022-12-14T00:08:59.063Z,77.00
2022-12-14T00:11:26.050Z,77.33
2022-12-14T00:13:58.224Z,76.88
2022-12-14T00:16:27.817Z,76.65
2022-12-14T00:18:57.760Z,76.27
2022-12-14T00:21:24.428Z,76.34
2022-12-14T00:23:52.130Z,75.14
2022-12-14T00:26:24.312Z,74.65
2022-12-14T00:28:52.462Z,74.47
2022-12-14T00:31:19.610Z,74.82
2022-12-14T00:33:46.754Z,74.24
2022-12-14T00:36:13.718Z,74.02
2022-12-14T00:38:40.909Z,74.06
2022-12-14T00:41:08.065Z,73.90
2022-12-14T00:43:34.798Z,72.51
2022-12-14T00:46:01.490Z,71.36
2022-12-14T00:48:28.653Z,70.51
2022-12-14T00:50:56.082Z,70.52
2022-12-14T00:53:23.766Z,70.68
2022-12-14T00:55:50.712Z,70.67
2022-12-14T00:58:20.194Z,70.07
2022-12-14T01:00:48.382Z,69.97
2022-12-14T01:03:15.303Z,69.35
2022-12-14T01:05:42.074Z,68.67
2022-12-14T01:08:15.889Z,68.56
2022-12-14T01:10:42.577Z,68.37
2022-12-14T01:13:11.138Z,68.51
2022-12-14T01:15:37.879Z,68.97
2022-12-14T01:18:04.839Z,68.62
2022-12-14T01:20:31.435Z,68.71
2022-12-14T01:22:58.085Z,68.49
2022-12-14T01:25:24.914Z,68.28
2022-12-14T01:27:51.694Z,68.25
2022-12-14T01:30:19.280Z,68.05
2022-12-14T01:32:46.789Z,67.67
2022-12-14T01:35:13.604Z,67.16
2022-12-14T01:37:40.272Z,67.18
2022-12-14T01:40:07.851Z,66.58
2022-12-14T01:42:37.955Z,65.93
2022-12-14T01:45:06.114Z,65.70
2022-12-14T01:47:42.403Z,65.23
2022-12-14T01:50:27.247Z,64.39
2022-12-14T01:52:56.961Z,64.21
2022-12-14T01:55:34.311Z,64.84
2022-12-14T01:58:20.448Z,63.63
2022-12-14T02:00:47.649Z,63.32
2022-12-14T02:03:38.353Z,62.73
2022-12-14T02:06:06.148Z,62.19
2022-12-14T02:08:33.103Z,61.97
2022-12-14T02:11:00.031Z,61.19
2022-12-14T02:13:29.686Z,60.60
2022-12-14T02:15:56.646Z,59.86
2022-12-14T02:18:27.693Z,58.78
2022-12-14T02:21:12.278Z,58.31
2022-12-14T02:23:45.106Z,58.08
2022-12-14T02:26:44.216Z,57.15
2022-12-14T02:29:19.758Z,56.27
2022-12-14T02:31:46.259Z,56.34
2022-12-14T02:34:35.156Z,55.53
2022-12-14T02:37:17.512Z,55.58
2022-12-14T02:40:01.367Z,55.08
2022-12-14T02:42:36.993Z,54.99
2022-12-14T02:45:16.977Z,54.98
2022-12-14T02:47:54.384Z,54.82
2022-12-14T02:50:29.978Z,55.48
2022-12-14T02:53:08.898Z,56.02
2022-12-14T02:55:37.708Z,55.82
2022-12-14T02:58:13.650Z,55.55
2022-12-14T03:00:40.816Z,55.73
2022-12-14T03:03:07.508Z,55.00
2022-12-14T03:05:35.009Z,54.39
2022-12-14T03:08:08.776Z,52.95
2022-12-14T03:10:41.539Z,52.38
2022-12-14T03:13:49.190Z,51.57
2022-12-14T03:16:16.001Z,51.26
2022-12-14T03:18:50.221Z,50.77
2022-12-14T03:21:21.021Z,51.03
2022-12-14T03:23:49.107Z,50.49
2022-12-14T03:26:38.386Z,51.01
2022-12-14T03:29:11.453Z,50.11
2022-12-14T03:31:42.147Z,50.89
2022-12-14T03:34:13.024Z,50.81
2022-12-14T03:36:59.216Z,49.77
2022-12-14T03:39:29.743Z,48.81
2022-12-14T03:42:05.323Z,48.27
2022-12-14T03:44:33.919Z,47.88
2022-12-14T03:47:19.388Z,47.00
2022-12-14T03:50:30.823Z,46.75
2022-12-14T03:53:00.140Z,47.01
2022-12-14T03:55:44.760Z,46.98
2022-12-14T03:58:57.003Z,47.30
2022-12-14T04:01:44.569Z,46.99
2022-12-14T04:04:35.752Z,47.30
2022-12-14T04:07:23.379Z,46.52
2022-12-14T04:09:59.410Z,45.89
2022-12-14T04:12:54.381Z,45.40
2022-12-14T04:15:43.884Z,45.27
2022-12-14T04:18:34.891Z,45.60
2022-12-14T04:21:07.741Z,44.89
2022-12-14T04:23:57.053Z,43.61
2022-12-14T04:26:29.313Z,42.61
2022-12-14T04:29:18.100Z,43.18
2022-12-14T04:31:49.267Z,41.90
2022-12-14T04:34:17.296Z,41.17
2022-12-14T04:36:50.181Z,41.20
2022-12-14T04:39:22.474Z,40.62
2022-12-14T04:41:52.402Z,40.19
2022-12-14T04:44:26.367Z,38.33
2022-12-14T04:46:53.710Z,38.96
2022-12-14T04:49:24.333Z,39.63
2022-12-14T04:52:14.600Z,39.88
2022-12-14T04:54:55.193Z,40.23
2022-12-14T04:57:36.846Z,39.96
2022-12-14T05:00:05.601Z,41.02
2022-12-14T05:03:00.281Z,40.90
2022-12-14T05:05:36.951Z,40.89
2022-12-14T05:08:12.443Z,40.72
2022-12-14T05:10:46.051Z,40.39
2022-12-14T05:13:30.941Z,39.18
2022-12-14T05:15:58.519Z,41.21
2022-12-14T05:18:25.629Z,40.49
2022-12-14T05:20:52.205Z,41.03
2022-12-14T05:23:18.892Z,41.47
2022-12-14T05:25:45.455Z,41.73
2022-12-14T05:28:15.979Z,41.90
2022-12-14T05:30:42.706Z,41.46
2022-12-14T05:33:19.601Z,41.57
2022-12-14T05:35:46.625Z,42.02
2022-12-14T05:38:13.243Z,42.57
2022-12-14T05:40:42.481Z,42.53
2022-12-14T05:43:12.179Z,43.11
2022-12-14T05:45:38.862Z,43.30
2022-12-14T05:48:05.749Z,43.25
2022-12-14T05:50:32.432Z,43.35
2022-12-14T05:52:59.091Z,43.71
2022-12-14T05:55:25.763Z,43.72
2022-12-14T05:57:52.436Z,43.75
2022-12-14T06:00:19.135Z,44.21
2022-12-14T06:02:45.893Z,44.64
2022-12-14T06:05:12.545Z,44.96
2022-12-14T06:07:39.661Z,44.91
2022-12-14T06:10:06.702Z,45.05
2022-12-14T06:12:33.284Z,45.46
2022-12-14T06:14:59.914Z,45.80
2022-12-14T06:17:26.491Z,45.99
2022-12-14T06:19:53.119Z,46.36
2022-12-14T06:22:20.794Z,46.31
2022-12-14T06:24:47.376Z,46.35
2022-12-14T06:27:13.969Z,46.09
2022-12-14T06:29:40.639Z,46.45
2022-12-14T06:32:07.239Z,46.34
2022-12-14T06:34:38.460Z,46.00
2022-12-14T06:37:06.252Z,46.15
2022-12-14T06:39:32.862Z,46.11
2022-12-14T06:41:59.473Z,46.00
2022-12-14T06:44:26.070Z,45.88
2022-12-14T06:46:52.745Z,45.49
2022-12-14T06:49:19.465Z,46.03
2022-12-14T06:51:46.020Z,45.28
2022-12-14T06:54:13.717Z,45.57
2022-12-14T06:56:41.409Z,45.61
2022-12-14T06:59:08.812Z,46.14
2022-12-14T07:01:36.924Z,45.86
2022-12-14T07:04:04.328Z,46.01
2022-12-14T07:06:39.436Z,46.30
2022-12-14T07:09:07.549Z,46.22
2022-12-14T07:11:34.219Z,45.82
2022-12-14T07:14:03.144Z,46.07
2022-12-14T07:16:29.684Z,46.35
2022-12-14T07:18:56.606Z,46.42
2022-12-14T07:21:23.939Z,46.52
2022-12-14T07:23:52.462Z,46.49
2022-12-14T07:26:27.482Z,46.17
2022-12-14T07:28:54.753Z,45.98
2022-12-14T07:31:23.911Z,45.98
2022-12-14T07:33:55.137Z,45.83
2022-12-14T07:36:22.911Z,45.74
2022-12-14T07:38:50.761Z,45.69
2022-12-14T07:41:23.515Z,46.19
2022-12-14T07:43:52.135Z,45.62
2022-12-14T07:46:24.259Z,45.49
2022-12-14T07:48:53.347Z,45.22
2022-12-14T07:51:22.847Z,45.30
2022-12-14T07:53:50.696Z,45.79
2022-12-14T07:56:23.104Z,45.19
2022-12-14T07:58:49.840Z,44.91
2022-12-14T08:01:25.314Z,44.65
2022-12-14T08:03:54.363Z,44.41
2022-12-14T08:06:23.389Z,44.37
2022-12-14T08:08:50.228Z,44.34
2022-12-14T08:11:17.042Z,43.84
2022-12-14T08:13:43.878Z,43.38
2022-12-14T08:16:15.845Z,43.60
2022-12-14T08:18:43.468Z,43.47
2022-12-14T08:21:12.440Z,44.10
2022-12-14T08:23:39.147Z,43.77
2022-12-14T08:26:07.386Z,43.81
2022-12-14T08:28:35.220Z,43.80
2022-12-14T08:31:10.911Z,43.69
2022-12-14T08:33:38.627Z,43.78
2022-12-14T08:36:08.048Z,43.20
2022-12-14T08:38:34.814Z,43.70
2022-12-14T08:41:05.694Z,43.64
2022-12-14T08:43:32.975Z,43.64
2022-12-14T08:45:59.938Z,43.70
2022-12-14T08:48:26.627Z,43.51
2022-12-14T08:50:53.573Z,43.40
2022-12-14T08:53:20.419Z,43.60
2022-12-14T08:55:47.041Z,43.38
2022-12-14T08:58:13.997Z,43.55
2022-12-14T09:00:40.609Z,43.37
2022-12-14T09:03:07.621Z,43.45
2022-12-14T09:05:35.062Z,43.41
2022-12-14T09:08:01.805Z,43.15
2022-12-14T09:10:28.433Z,43.12
2022-12-14T09:12:55.071Z,43.25
2022-12-14T09:15:21.947Z,43.57
2022-12-14T09:17:49.857Z,43.73
2022-12-14T09:20:16.708Z,43.42
2022-12-14T09:22:43.473Z,43.23
2022-12-14T09:25:10.125Z,43.44
2022-12-14T09:27:36.800Z,43.64
2022-12-14T09:30:04.232Z,43.87
2022-12-14T09:32:31.068Z,43.75
2022-12-14T09:34:59.811Z,44.01
2022-12-14T09:37:26.453Z,43.55
2022-12-14T09:39:53.181Z,44.07
2022-12-14T09:42:38.562Z,44.10
2022-12-14T09:45:17.327Z,44.35
2022-12-14T09:47:49.740Z,44.15
2022-12-14T09:50:19.337Z,44.15
2022-12-14T09:52:53.321Z,44.18
2022-12-14T09:55:24.427Z,43.85
2022-12-14T09:57:55.723Z,44.10
2022-12-14T10:00:22.740Z,43.92
2022-12-14T10:03:08.810Z,43.95
2022-12-14T10:06:00.088Z,43.85
2022-12-14T10:08:58.976Z,43.88
2022-12-14T10:11:40.759Z,43.68
2022-12-14T10:14:52.282Z,43.82
2022-12-14T10:18:05.657Z,43.41
2022-12-14T10:20:34.960Z,43.25
2022-12-14T10:23:02.373Z,42.87
2022-12-14T10:25:31.667Z,42.16
2022-12-14T10:28:12.786Z,41.30
2022-12-14T10:30:41.960Z,40.57
2022-12-14T10:33:14.806Z,40.73
2022-12-14T10:35:51.152Z,39.96
2022-12-14T10:38:23.715Z,40.29
2022-12-14T10:40:52.100Z,40.27
2022-12-14T10:43:44.146Z,39.83
2022-12-14T10:46:28.987Z,38.70
2022-12-14T10:49:09.022Z,40.79
2022-12-14T10:51:38.756Z,41.58
2022-12-14T10:54:17.491Z,42.61
2022-12-14T10:56:49.853Z,42.57
2022-12-14T10:59:25.823Z,44.57
2022-12-14T11:02:18.632Z,45.16
2022-12-14T11:04:51.495Z,46.37
2022-12-14T11:07:21.841Z,46.54
2022-12-14T11:09:48.982Z,47.19
2022-12-14T11:12:24.830Z,47.78
2022-12-14T11:15:01.471Z,47.01
2022-12-14T11:17:36.563Z,48.75
2022-12-14T11:20:09.523Z,49.68
2022-12-14T11:22:50.840Z,49.60
2022-12-14T11:25:37.705Z,48.00
2022-12-14T11:28:16.772Z,50.09
2022-12-14T11:30:55.772Z,49.31
2022-12-14T11:33:22.846Z,50.99
2022-12-14T11:35:52.690Z,52.47
2022-12-14T11:38:19.938Z,53.15
2022-12-14T11:40:47.108Z,55.55
2022-12-14T11:43:24.431Z,56.39
2022-12-14T11:45:51.646Z,57.02
2022-12-14T11:48:24.239Z,56.38
2022-12-14T11:50:53.111Z,56.39
2022-12-14T11:53:20.948Z,57.18
2022-12-14T11:55:52.576Z,57.82
2022-12-14T11:58:22.579Z,58.27
2022-12-14T12:00:59.572Z,59.71
2022-12-14T12:03:32.604Z,60.77
2022-12-14T12:06:06.232Z,61.86
2022-12-14T12:08:35.683Z,63.23
2022-12-14T12:11:15.400Z,63.99
2022-12-14T12:13:45.034Z,65.53
2022-12-14T12:16:20.301Z,66.45
2022-12-14T12:18:54.937Z,66.73
2022-12-14T12:21:25.434Z,65.70
2022-12-14T12:24:17.507Z,67.30
2022-12-14T12:26:55.911Z,68.07
2022-12-14T12:29:32.156Z,69.32
2022-12-14T12:32:17.258Z,69.03
2022-12-14T12:34:57.086Z,66.97
2022-12-14T12:37:36.831Z,64.72
2022-12-14T12:40:24.535Z,67.94
2022-12-14T12:43:01.948Z,69.04
2022-12-14T12:45:34.991Z,69.85
2022-12-14T12:48:25.520Z,70.67
2022-12-14T12:50:55.901Z,69.96
2022-12-14T12:53:30.216Z,69.39
2022-12-14T12:56:16.979Z,67.95
2022-12-14T12:58:50.663Z,67.24
2022-12-14T13:01:36.109Z,65.93
2022-12-14T13:04:10.243Z,65.35
2022-12-14T13:06:50.583Z,64.35
2022-12-14T13:09:35.298Z,63.94
2022-12-14T13:12:02.980Z,62.46
2022-12-14T13:14:35.126Z,62.38
2022-12-14T13:17:04.547Z,61.30
2022-12-14T13:19:54.661Z,61.06
2022-12-14T13:22:30.180Z,59.98
2022-12-14T13:25:00.229Z,59.14
2022-12-14T13:27:42.436Z,58.26
2022-12-14T13:30:27.172Z,57.43
2022-12-14T13:33:31.336Z,56.26
2022-12-14T13:36:26.137Z,56.60
2022-12-14T13:39:18.142Z,55.49
2022-12-14T13:42:09.339Z,55.39
2022-12-14T13:45:01.374Z,56.06
2022-12-14T13:47:53.965Z,56.85
2022-12-14T13:50:54.217Z,56.86
2022-12-14T13:53:34.696Z,57.13
2022-12-14T13:56:02.277Z,56.19
2022-12-14T13:58:49.393Z,56.29
2022-12-14T14:01:48.209Z,56.26
2022-12-14T14:04:32.365Z,56.20
2022-12-14T14:07:25.243Z,56.46
2022-12-14T14:09:54.954Z,56.03
2022-12-14T14:12:24.207Z,54.83
2022-12-14T14:14:52.623Z,55.37
2022-12-14T14:17:30.012Z,55.37
2022-12-14T14:19:57.823Z,54.92
2022-12-14T14:22:27.463Z,53.29
2022-12-14T14:24:58.778Z,52.77
2022-12-14T14:27:44.974Z,54.13
2022-12-14T14:30:29.994Z,54.21
2022-12-14T14:33:20.047Z,52.70
2022-12-14T14:35:44.609Z,53.16
2022-12-14T14:38:25.474Z,52.56
2022-12-14T14:41:15.991Z,52.43
2022-12-14T14:43:49.878Z,53.68
2022-12-14T14:46:22.171Z,53.98
2022-12-14T14:48:50.589Z,54.05
2022-12-14T14:51:20.602Z,53.79
2022-12-14T14:53:50.254Z,53.16
2022-12-14T14:56:29.355Z,52.02
2022-12-14T14:59:14.771Z,51.15
2022-12-14T15:01:48.399Z,50.07
2022-12-14T15:04:23.489Z,49.28
2022-12-14T15:06:57.409Z,49.12
2022-12-14T15:09:33.992Z,48.95
2022-12-14T15:12:06.905Z,48.42
2022-12-14T15:14:46.618Z,48.33
2022-12-14T15:17:18.197Z,48.23
2022-12-14T15:19:49.546Z,47.71
2022-12-14T15:22:19.547Z,47.42
2022-12-14T15:24:48.862Z,46.72
2022-12-14T15:27:28.754Z,46.29
2022-12-14T15:30:05.817Z,45.71
2022-12-14T15:32:32.883Z,45.61
2022-12-14T15:35:06.490Z,45.30
2022-12-14T15:37:56.453Z,44.84
2022-12-14T15:40:28.051Z,44.92
2022-12-14T15:43:01.970Z,44.92
2022-12-14T15:45:34.697Z,45.03
2022-12-14T15:48:31.064Z,44.80
2022-12-14T15:51:00.351Z,44.75
2022-12-14T15:53:31.883Z,44.77
2022-12-14T15:56:11.786Z,44.83
2022-12-14T15:58:40.831Z,44.33
2022-12-14T16:01:14.115Z,44.35
2022-12-14T16:03:43.799Z,44.27
2022-12-14T16:06:11.360Z,44.53
2022-12-14T16:08:44.652Z,44.60
2022-12-14T16:11:19.385Z,44.47
2022-12-14T16:13:46.345Z,44.48
2022-12-14T16:16:13.690Z,44.13
2022-12-14T16:18:50.619Z,44.71
2022-12-14T16:21:30.289Z,44.34
2022-12-14T16:23:58.030Z,44.58
2022-12-14T16:26:37.632Z,44.65
2022-12-14T16:29:23.089Z,44.68
2022-12-14T16:31:49.990Z,44.26
2022-12-14T16:34:20.604Z,44.54
2022-12-14T16:37:14.554Z,44.91
2022-12-14T16:39:44.793Z,44.71
2022-12-14T16:42:25.557Z,44.97
2022-12-14T16:44:54.079Z,45.07
2022-12-14T16:47:20.634Z,44.96
2022-12-14T16:49:51.694Z,45.20
2022-12-14T16:52:23.873Z,45.62
2022-12-14T16:55:09.348Z,45.71
2022-12-14T16:57:39.615Z,45.62
2022-12-14T17:00:07.451Z,45.81
2022-12-14T17:02:34.600Z,46.18
2022-12-14T17:05:05.662Z,46.68
2022-12-14T17:07:33.520Z,46.69
2022-12-14T17:10:00.321Z,46.73
2022-12-14T17:12:27.214Z,47.03
2022-12-14T17:14:54.076Z,47.11
2022-12-14T17:17:34.182Z,47.28
2022-12-14T17:20:02.165Z,47.27
2022-12-14T17:22:30.698Z,47.58
2022-12-14T17:24:59.236Z,47.14
2022-12-14T17:27:26.810Z,47.46
2022-12-14T17:29:54.683Z,47.63
2022-12-14T17:32:22.465Z,47.86
2022-12-14T17:34:49.212Z,47.58
2022-12-14T17:37:20.666Z,47.82
2022-12-14T17:39:47.483Z,47.94
2022-12-14T17:42:17.195Z,48.21
2022-12-14T17:44:54.362Z,48.19
2022-12-14T17:47:22.596Z,47.83
2022-12-14T17:49:49.377Z,48.28
2022-12-14T17:52:24.165Z,48.49
2022-12-14T17:54:50.785Z,48.46
2022-12-14T17:57:22.622Z,49.03
2022-12-14T17:59:49.857Z,48.87
2022-12-14T18:02:28.855Z,48.83
2022-12-14T18:04:55.890Z,49.00
2022-12-14T18:07:22.578Z,48.77
2022-12-14T18:09:50.591Z,49.03
2022-12-14T18:12:25.118Z,48.89
2022-12-14T18:14:52.322Z,49.14
2022-12-14T18:17:19.159Z,49.48
2022-12-14T18:19:47.896Z,49.30
2022-12-14T18:22:16.722Z,49.45
2022-12-14T18:24:43.358Z,49.49
2022-12-14T18:27:13.725Z,50.27
2022-12-14T18:29:40.622Z,49.83
2022-12-14T18:32:11.259Z,49.77
2022-12-14T18:34:37.955Z,50.66
2022-12-14T18:37:04.640Z,50.12
2022-12-14T18:39:31.265Z,50.44
2022-12-14T18:41:57.847Z,50.72
2022-12-14T18:44:24.739Z,50.56
2022-12-14T18:46:51.383Z,50.49
2022-12-14T18:49:17.951Z,50.67
2022-12-14T18:51:44.611Z,51.10
2022-12-14T18:54:11.550Z,50.42
2022-12-14T18:56:40.974Z,51.05
2022-12-14T18:59:07.695Z,50.75
2022-12-14T19:01:34.482Z,51.22
2022-12-14T19:04:01.369Z,50.87
2022-12-14T19:06:44.027Z,51.25
2022-12-14T19:09:12.732Z,50.49
2022-12-14T19:11:41.716Z,50.76
2022-12-14T19:14:08.519Z,50.98
2022-12-14T19:16:35.272Z,50.99
2022-12-14T19:19:01.941Z,51.03
2022-12-14T19:21:29.659Z,51.41
2022-12-14T19:23:56.699Z,52.74
2022-12-14T19:26:23.347Z,52.98
2022-12-14T19:28:50.067Z,53.20
2022-12-14T19:31:16.955Z,53.30
2022-12-14T19:33:43.654Z,53.51
2022-12-14T19:36:10.846Z,53.74
2022-12-14T19:38:37.910Z,53.38
2022-12-14T19:41:07.625Z,53.57
2022-12-14T19:43:35.243Z,53.67
2022-12-14T19:46:10.106Z,54.81
2022-12-14T19:48:38.074Z,55.93
2022-12-14T19:51:06.713Z,56.06
2022-12-14T19:53:34.876Z,55.98
2022-12-14T19:56:01.721Z,56.13
2022-12-14T19:58:29.121Z,56.46
2022-12-14T20:00:56.067Z,56.48
2022-12-14T20:03:22.832Z,57.50
2022-12-14T20:05:55.228Z,58.01
2022-12-14T20:08:22.535Z,58.53
2022-12-14T20:10:49.309Z,58.51
2022-12-14T20:13:16.172Z,58.32
2022-12-14T20:15:53.704Z,58.62
2022-12-14T20:18:21.797Z,59.91
2022-12-14T20:20:49.427Z,59.42
2022-12-14T20:23:17.634Z,59.14
2022-12-14T20:25:44.782Z,59.37
2022-12-14T20:28:11.399Z,59.31
2022-12-14T20:30:45.742Z,60.07
2022-12-14T20:33:12.761Z,59.19
2022-12-14T20:35:39.471Z,59.02
2022-12-14T20:38:06.137Z,59.71
2022-12-14T20:40:37.999Z,59.54
2022-12-14T20:43:06.507Z,59.89
2022-12-14T20:45:40.531Z,59.96
2022-12-14T20:48:07.960Z,60.28
2022-12-14T20:50:38.614Z,60.11
2022-12-14T20:53:05.841Z,60.05
2022-12-14T20:55:34.049Z,60.18
2022-12-14T20:58:01.420Z,60.40
2022-12-14T21:00:28.458Z,60.68
2022-12-14T21:02:55.233Z,60.43
2022-12-14T21:05:21.997Z,60.72
2022-12-14T21:07:48.803Z,60.76
2022-12-14T21:10:15.456Z,60.70
2022-12-14T21:12:42.041Z,60.78
2022-12-14T21:15:09.022Z,60.92
2022-12-14T21:17:35.629Z,60.92
2022-12-14T21:20:02.309Z,61.97
2022-12-14T21:22:30.455Z,61.71
2022-12-14T21:25:06.031Z,61.77
2022-12-14T21:27:34.844Z,62.31
2022-12-14T21:30:01.756Z,62.38
2022-12-14T21:32:28.454Z,62.81
2022-12-14T21:34:55.052Z,63.84
2022-12-14T21:37:22.623Z,63.62
2022-12-14T21:39:54.995Z,64.21
2022-12-14T21:42:23.845Z,64.58
2022-12-14T21:44:51.893Z,64.89
2022-12-14T21:47:20.089Z,65.29
2022-12-14T21:49:47.499Z,65.79
2022-12-14T21:52:18.157Z,66.10
2022-12-14T21:54:44.997Z,65.46
2022-12-14T21:57:35.551Z,65.21
2022-12-14T22:00:02.693Z,65.67
2022-12-14T22:02:39.182Z,66.62
2022-12-14T22:05:06.527Z,65.57
2022-12-14T22:07:34.021Z,65.98
2022-12-14T22:10:00.758Z,65.71
2022-12-14T22:12:27.615Z,65.61
2022-12-14T22:14:54.248Z,64.89
2022-12-14T22:17:20.881Z,64.63
2022-12-14T22:19:48.990Z,65.61
2022-12-14T22:22:16.320Z,65.47
2022-12-14T22:24:43.481Z,65.89
2022-12-14T22:27:11.837Z,65.95
2022-12-14T22:29:38.460Z,66.05
2022-12-14T22:32:06.061Z,66.49
2022-12-14T22:34:32.710Z,67.50
2022-12-14T22:36:59.426Z,66.57
2022-12-14T22:39:25.996Z,66.46
2022-12-14T22:41:52.601Z,67.30
2022-12-14T22:44:19.190Z,66.91
2022-12-14T22:46:46.897Z,66.74
2022-12-14T22:49:16.805Z,67.05
2022-12-14T22:51:43.431Z,67.63
2022-12-14T22:54:21.409Z,68.25
2022-12-14T22:57:01.167Z,67.70
2022-12-14T22:59:37.559Z,67.90
2022-12-14T23:02:05.071Z,67.94
2022-12-14T23:04:31.892Z,68.07
2022-12-14T23:06:58.499Z,67.52
2022-12-14T23:09:43.370Z,68.10
2022-12-14T23:12:28.507Z,67.76
2022-12-14T23:15:13.761Z,68.03
2022-12-14T23:17:58.943Z,67.77
2022-12-14T23:20:44.221Z,67.42
2022-12-14T23:23:29.768Z,68.24
2022-12-14T23:26:20.149Z,68.55
2022-12-14T23:29:05.495Z,68.14
2022-12-14T23:31:50.771Z,68.17
2022-12-14T23:34:35.732Z,68.35
2022-12-14T23:37:20.979Z,68.38
2022-12-14T23:40:06.723Z,68.47
2022-12-14T23:42:52.058Z,68.88
2022-12-14T23:45:37.417Z,67.69
2022-12-14T23:48:22.615Z,68.04
2022-12-14T23:51:07.922Z,67.54
2022-12-14T23:53:53.226Z,67.72
2022-12-14T23:56:38.495Z,67.39
2022-12-14T23:59:27.972Z,67.07
